sensor_id;sensor_type;location;lat;lon;timestamp;pressure;altitude;pressure_sealevel;temperature
64394;BMP280;50712;49.506;10.400;2023-11-21T00:00:22;97421.44;;;11.38
64394;BMP280;50712;49.506;10.400;2023-11-21T00:00:53;97417.22;;;11.37
64394;BMP280;50712;49.506;10.400;2023-11-21T00:01:23;97416.75;;;11.38
64394;BMP280;50712;49.506;10.400;2023-11-21T00:01:54;97420.72;;;11.37
64394;BMP280;50712;49.506;10.400;2023-11-21T00:02:24;97420.25;;;11.39
64394;BMP280;50712;49.506;10.400;2023-11-21T00:02:55;97426.91;;;11.38
64394;BMP280;50712;49.506;10.400;2023-11-21T00:03:25;97422.22;;;11.38
64394;BMP280;50712;49.506;10.400;2023-11-21T00:03:58;97422.97;;;11.39
64394;BMP280;50712;49.506;10.400;2023-11-21T00:04:28;97420.97;;;11.39
64394;BMP280;50712;49.506;10.400;2023-11-21T00:04:58;97426.44;;;11.39
64394;BMP280;50712;49.506;10.400;2023-11-21T00:05:29;97428.41;;;11.39
64394;BMP280;50712;49.506;10.400;2023-11-21T00:05:59;97424.94;;;11.38
64394;BMP280;50712;49.506;10.400;2023-11-21T00:06:30;97428.41;;;11.39
64394;BMP280;50712;49.506;10.400;2023-11-21T00:07:01;97423.69;;;11.39
64394;BMP280;50712;49.506;10.400;2023-11-21T00:07:31;97424.16;;;11.38
64394;BMP280;50712;49.506;10.400;2023-11-21T00:08:01;97424.94;;;11.38
64394;BMP280;50712;49.506;10.400;2023-11-21T00:08:32;97426.91;;;11.38
64394;BMP280;50712;49.506;10.400;2023-11-21T00:09:02;97426.91;;;11.38
64394;BMP280;50712;49.506;10.400;2023-11-21T00:09:32;97420.72;;;11.37
64394;BMP280;50712;49.506;10.400;2023-11-21T00:10:03;97420.25;;;11.39
64394;BMP280;50712;49.506;10.400;2023-11-21T00:10:35;97426.44;;;11.39
64394;BMP280;50712;49.506;10.400;2023-11-21T00:11:08;97421.44;;;11.38
64394;BMP280;50712;49.506;10.400;2023-11-21T00:11:38;97422.22;;;11.38
64394;BMP280;50712;49.506;10.400;2023-11-21T00:12:09;97421.44;;;11.38
64394;BMP280;50712;49.506;10.400;2023-11-21T00:12:40;97425.41;;;11.37
64394;BMP280;50712;49.506;10.400;2023-11-21T00:13:12;97426.91;;;11.38
64394;BMP280;50712;49.506;10.400;2023-11-21T00:13:42;97425.41;;;11.37
64394;BMP280;50712;49.506;10.400;2023-11-21T00:14:13;97425.09;;;11.35
64394;BMP280;50712;49.506;10.400;2023-11-21T00:14:45;97416.19;;;11.34
64394;BMP280;50712;49.506;10.400;2023-11-21T00:15:15;97422.34;;;11.35
64394;BMP280;50712;49.506;10.400;2023-11-21T00:15:46;97421.63;;;11.34
64394;BMP280;50712;49.506;10.400;2023-11-21T00:16:16;97420.88;;;11.34
64394;BMP280;50712;49.506;10.400;2023-11-21T00:16:46;97419.34;;;11.33
64394;BMP280;50712;49.506;10.400;2023-11-21T00:17:17;97419.34;;;11.33
64394;BMP280;50712;49.506;10.400;2023-11-21T00:17:47;97419.34;;;11.33
64394;BMP280;50712;49.506;10.400;2023-11-21T00:18:17;97416.34;;;11.31
64394;BMP280;50712;49.506;10.400;2023-11-21T00:18:48;97417.06;;;11.31
64394;BMP280;50712;49.506;10.400;2023-11-21T00:19:19;97417.06;;;11.31
64394;BMP280;50712;49.506;10.400;2023-11-21T00:19:49;97417.81;;;11.32
64394;BMP280;50712;49.506;10.400;2023-11-21T00:20:22;97417.81;;;11.32
64394;BMP280;50712;49.506;10.400;2023-11-21T00:20:52;97417.81;;;11.32
64394;BMP280;50712;49.506;10.400;2023-11-21T00:21:22;97413.63;;;11.31
64394;BMP280;50712;49.506;10.400;2023-11-21T00:21:53;97414.34;;;11.31
64394;BMP280;50712;49.506;10.400;2023-11-21T00:22:23;97415.09;;;11.32
64394;BMP280;50712;49.506;10.400;2023-11-21T00:22:53;97408.19;;;11.31
64394;BMP280;50712;49.506;10.400;2023-11-21T00:23:24;97417.81;;;11.32
64394;BMP280;50712;49.506;10.400;2023-11-21T00:23:54;97413.63;;;11.31
64394;BMP280;50712;49.506;10.400;2023-11-21T00:24:25;97410.91;;;11.31
64394;BMP280;50712;49.506;10.400;2023-11-21T00:24:55;97407.41;;;11.30
64394;BMP280;50712;49.506;10.400;2023-11-21T00:25:26;97413.63;;;11.31
64394;BMP280;50712;49.506;10.400;2023-11-21T00:25:56;97405.44;;;11.31
64394;BMP280;50712;49.506;10.400;2023-11-21T00:26:26;97403.41;;;11.31
64394;BMP280;50712;49.506;10.400;2023-11-21T00:27:05;97415.09;;;11.32
64394;BMP280;50712;49.506;10.400;2023-11-21T00:27:36;97408.19;;;11.31
64394;BMP280;50712;49.506;10.400;2023-11-21T00:28:06;97408.88;;;11.31
64394;BMP280;50712;49.506;10.400;2023-11-21T00:28:37;97406.16;;;11.31
64394;BMP280;50712;49.506;10.400;2023-11-21T00:29:07;97405.44;;;11.31
64394;BMP280;50712;49.506;10.400;2023-11-21T00:29:38;97410.91;;;11.31
64394;BMP280;50712;49.506;10.400;2023-11-21T00:30:11;97399.22;;;11.30
64394;BMP280;50712;49.506;10.400;2023-11-21T00:30:42;97410.91;;;11.31
64394;BMP280;50712;49.506;10.400;2023-11-21T00:31:13;97396.50;;;11.30
64394;BMP280;50712;49.506;10.400;2023-11-21T00:31:44;97400.69;;;11.31
64394;BMP280;50712;49.506;10.400;2023-11-21T00:32:16;97407.41;;;11.30
64394;BMP280;50712;49.506;10.400;2023-11-21T00:32:46;97400.69;;;11.31
64394;BMP280;50712;49.506;10.400;2023-11-21T00:33:17;97399.22;;;11.30
64394;BMP280;50712;49.506;10.400;2023-11-21T00:33:47;97404.69;;;11.30
64394;BMP280;50712;49.506;10.400;2023-11-21T00:34:17;97408.19;;;11.31
64394;BMP280;50712;49.506;10.400;2023-11-21T00:34:48;97403.94;;;11.30
64394;BMP280;50712;49.506;10.400;2023-11-21T00:35:19;97408.63;;;11.29
64394;BMP280;50712;49.506;10.400;2023-11-21T00:35:49;97398.91;;;11.28
64394;BMP280;50712;49.506;10.400;2023-11-21T00:36:19;97405.88;;;11.29
64394;BMP280;50712;49.506;10.400;2023-11-21T00:36:50;97404.38;;;11.28
64394;BMP280;50712;49.506;10.400;2023-11-21T00:37:20;97411.81;;;11.28
64394;BMP280;50712;49.506;10.400;2023-11-21T00:37:51;97400.91;;;11.28
64394;BMP280;50712;49.506;10.400;2023-11-21T00:38:22;97404.38;;;11.28
64394;BMP280;50712;49.506;10.400;2023-11-21T00:38:53;97410.59;;;11.29
64394;BMP280;50712;49.506;10.400;2023-11-21T00:39:23;97405.13;;;11.29
64394;BMP280;50712;49.506;10.400;2023-11-21T00:39:54;97409.81;;;11.28
64394;BMP280;50712;49.506;10.400;2023-11-21T00:40:24;97407.09;;;11.28
64394;BMP280;50712;49.506;10.400;2023-11-21T00:40:54;97398.91;;;11.28
64394;BMP280;50712;49.506;10.400;2023-11-21T00:41:27;97403.16;;;11.29
64394;BMP280;50712;49.506;10.400;2023-11-21T00:41:57;97405.88;;;11.29
64394;BMP280;50712;49.506;10.400;2023-11-21T00:42:28;97409.38;;;11.30
64394;BMP280;50712;49.506;10.400;2023-11-21T00:42:59;97403.94;;;11.30
64394;BMP280;50712;49.506;10.400;2023-11-21T00:43:29;97408.63;;;11.29
64394;BMP280;50712;49.506;10.400;2023-11-21T00:44:00;97404.69;;;11.30
64394;BMP280;50712;49.506;10.400;2023-11-21T00:44:30;97409.38;;;11.30
64394;BMP280;50712;49.506;10.400;2023-11-21T00:45:01;97404.69;;;11.30
64394;BMP280;50712;49.506;10.400;2023-11-21T00:45:31;97408.19;;;11.31
64394;BMP280;50712;49.506;10.400;2023-11-21T00:46:05;97413.63;;;11.31
64394;BMP280;50712;49.506;10.400;2023-11-21T00:46:38;97413.13;;;11.32
64394;BMP280;50712;49.506;10.400;2023-11-21T00:47:09;97409.63;;;11.32
64394;BMP280;50712;49.506;10.400;2023-11-21T00:47:39;97415.84;;;11.32
64394;BMP280;50712;49.506;10.400;2023-11-21T00:48:10;97409.63;;;11.32
64394;BMP280;50712;49.506;10.400;2023-11-21T00:48:43;97408.44;;;11.33
64394;BMP280;50712;49.506;10.400;2023-11-21T00:49:13;97413.13;;;11.32
64394;BMP280;50712;49.506;10.400;2023-11-21T00:49:44;97417.38;;;11.33
64394;BMP280;50712;49.506;10.400;2023-11-21T00:50:14;97413.44;;;11.34
64394;BMP280;50712;49.506;10.400;2023-11-21T00:50:45;97410.72;;;11.34
64394;BMP280;50712;49.506;10.400;2023-11-21T00:51:16;97412.69;;;11.34
64394;BMP280;50712;49.506;10.400;2023-11-21T00:51:48;97417.66;;;11.35
64394;BMP280;50712;49.506;10.400;2023-11-21T00:52:18;97419.63;;;11.35
64394;BMP280;50712;49.506;10.400;2023-11-21T00:52:48;97421.16;;;11.36
64394;BMP280;50712;49.506;10.400;2023-11-21T00:53:19;97418.44;;;11.36
64394;BMP280;50712;49.506;10.400;2023-11-21T00:53:50;97421.44;;;11.38
64394;BMP280;50712;49.506;10.400;2023-11-21T00:54:20;97424.66;;;11.36
64394;BMP280;50712;49.506;10.400;2023-11-21T00:54:50;97418.72;;;11.38
64394;BMP280;50712;49.506;10.400;2023-11-21T00:55:21;97424.16;;;11.38
64394;BMP280;50712;49.506;10.400;2023-11-21T00:55:52;97426.44;;;11.39
64394;BMP280;50712;49.506;10.400;2023-11-21T00:56:27;97424.94;;;11.38
64394;BMP280;50712;49.506;10.400;2023-11-21T00:56:57;97422.22;;;11.38
64394;BMP280;50712;49.506;10.400;2023-11-21T00:57:28;97420.97;;;11.39
64394;BMP280;50712;49.506;10.400;2023-11-21T00:57:58;97420.97;;;11.39
64394;BMP280;50712;49.506;10.400;2023-11-21T00:58:29;97429.91;;;11.40
64394;BMP280;50712;49.506;10.400;2023-11-21T00:59:00;97416.28;;;11.40
64394;BMP280;50712;49.506;10.400;2023-11-21T00:59:30;97420.97;;;11.39
64394;BMP280;50712;49.506;10.400;2023-11-21T01:00:01;97429.91;;;11.40
64394;BMP280;50712;49.506;10.400;2023-11-21T01:00:31;97422.50;;;11.40
64394;BMP280;50712;49.506;10.400;2023-11-21T01:01:02;97420.50;;;11.41
64394;BMP280;50712;49.506;10.400;2023-11-21T01:01:33;97425.94;;;11.41
64394;BMP280;50712;49.506;10.400;2023-11-21T01:02:04;97426.72;;;11.41
64394;BMP280;50712;49.506;10.400;2023-11-21T01:02:35;97428.69;;;11.41
64394;BMP280;50712;49.506;10.400;2023-11-21T01:03:05;97422.78;;;11.42
64394;BMP280;50712;49.506;10.400;2023-11-21T01:03:37;97425.94;;;11.41
64394;BMP280;50712;49.506;10.400;2023-11-21T01:04:08;97430.19;;;11.42
64394;BMP280;50712;49.506;10.400;2023-11-21T01:04:38;97429.44;;;11.41
64394;BMP280;50712;49.506;10.400;2023-11-21T01:05:09;97425.94;;;11.41
64394;BMP280;50712;49.506;10.400;2023-11-21T01:05:39;97434.91;;;11.41
64394;BMP280;50712;49.506;10.400;2023-11-21T01:06:10;97426.72;;;11.41
64394;BMP280;50712;49.506;10.400;2023-11-21T01:06:40;97431.41;;;11.41
64394;BMP280;50712;49.506;10.400;2023-11-21T01:07:12;97436.88;;;11.41
64394;BMP280;50712;49.506;10.400;2023-11-21T01:07:43;97430.19;;;11.42
64394;BMP280;50712;49.506;10.400;2023-11-21T01:08:14;97431.41;;;11.41
64394;BMP280;50712;49.506;10.400;2023-11-21T01:08:46;97430.19;;;11.42
64394;BMP280;50712;49.506;10.400;2023-11-21T01:09:16;97432.16;;;11.41
64394;BMP280;50712;49.506;10.400;2023-11-21T01:09:49;97428.69;;;11.41
64394;BMP280;50712;49.506;10.400;2023-11-21T01:10:19;97430.19;;;11.42
64394;BMP280;50712;49.506;10.400;2023-11-21T01:10:50;97428.25;;;11.42
64394;BMP280;50712;49.506;10.400;2023-11-21T01:11:21;97436.41;;;11.42
64394;BMP280;50712;49.506;10.400;2023-11-21T01:11:52;97439.16;;;11.42
64394;BMP280;50712;49.506;10.400;2023-11-21T01:12:22;97431.72;;;11.43
64394;BMP280;50712;49.506;10.400;2023-11-21T01:12:55;97430.97;;;11.42
64394;BMP280;50712;49.506;10.400;2023-11-21T01:13:25;97430.97;;;11.42
64394;BMP280;50712;49.506;10.400;2023-11-21T01:13:58;97429.75;;;11.43
64394;BMP280;50712;49.506;10.400;2023-11-21T01:14:30;97427.03;;;11.43
64394;BMP280;50712;49.506;10.400;2023-11-21T01:15:01;97435.22;;;11.43
64394;BMP280;50712;49.506;10.400;2023-11-21T01:15:31;97434.44;;;11.43
64394;BMP280;50712;49.506;10.400;2023-11-21T01:16:02;97435.22;;;11.43
64394;BMP280;50712;49.506;10.400;2023-11-21T01:16:34;97429.00;;;11.43
64394;BMP280;50712;49.506;10.400;2023-11-21T01:17:04;97434.44;;;11.43
64394;BMP280;50712;49.506;10.400;2023-11-21T01:17:35;97436.41;;;11.42
64394;BMP280;50712;49.506;10.400;2023-11-21T01:18:06;97430.97;;;11.42
64394;BMP280;50712;49.506;10.400;2023-11-21T01:18:36;97425.06;;;11.44
64394;BMP280;50712;49.506;10.400;2023-11-21T01:19:06;97432.50;;;11.43
64394;BMP280;50712;49.506;10.400;2023-11-21T01:19:37;97431.72;;;11.43
64394;BMP280;50712;49.506;10.400;2023-11-21T01:20:07;97433.25;;;11.44
64394;BMP280;50712;49.506;10.400;2023-11-21T01:20:42;97426.56;;;11.45
64394;BMP280;50712;49.506;10.400;2023-11-21T01:21:12;97431.25;;;11.44
64394;BMP280;50712;49.506;10.400;2023-11-21T01:21:42;97427.78;;;11.44
64394;BMP280;50712;49.506;10.400;2023-11-21T01:22:13;97428.53;;;11.44
64394;BMP280;50712;49.506;10.400;2023-11-21T01:22:43;97429.28;;;11.45
64394;BMP280;50712;49.506;10.400;2023-11-21T01:23:14;97426.56;;;11.45
64394;BMP280;50712;49.506;10.400;2023-11-21T01:23:45;97415.66;;;11.45
64394;BMP280;50712;49.506;10.400;2023-11-21T01:24:15;97418.38;;;11.45
64394;BMP280;50712;49.506;10.400;2023-11-21T01:24:46;97425.34;;;11.46
64394;BMP280;50712;49.506;10.400;2023-11-21T01:25:17;97425.78;;;11.44
64394;BMP280;50712;49.506;10.400;2023-11-21T01:25:47;97424.59;;;11.45
64394;BMP280;50712;49.506;10.400;2023-11-21T01:26:17;97423.06;;;11.44
64394;BMP280;50712;49.506;10.400;2023-11-21T01:26:48;97426.56;;;11.45
64394;BMP280;50712;49.506;10.400;2023-11-21T01:27:18;97426.56;;;11.45
64394;BMP280;50712;49.506;10.400;2023-11-21T01:27:49;97418.38;;;11.45
64394;BMP280;50712;49.506;10.400;2023-11-21T01:28:19;97421.09;;;11.45
64394;BMP280;50712;49.506;10.400;2023-11-21T01:28:49;97421.09;;;11.45
64394;BMP280;50712;49.506;10.400;2023-11-21T01:29:20;97421.09;;;11.45
64394;BMP280;50712;49.506;10.400;2023-11-21T01:29:50;97419.13;;;11.45
64394;BMP280;50712;49.506;10.400;2023-11-21T01:30:23;97418.38;;;11.45
64394;BMP280;50712;49.506;10.400;2023-11-21T01:30:54;97423.06;;;11.44
64394;BMP280;50712;49.506;10.400;2023-11-21T01:31:26;97418.38;;;11.45
64394;BMP280;50712;49.506;10.400;2023-11-21T01:31:59;97417.63;;;11.44
64394;BMP280;50712;49.506;10.400;2023-11-21T01:32:29;97424.59;;;11.45
64394;BMP280;50712;49.506;10.400;2023-11-21T01:33:00;97416.41;;;11.45
64394;BMP280;50712;49.506;10.400;2023-11-21T01:33:30;97419.13;;;11.45
64394;BMP280;50712;49.506;10.400;2023-11-21T01:34:00;97428.09;;;11.46
64394;BMP280;50712;49.506;10.400;2023-11-21T01:34:32;97421.09;;;11.45
64394;BMP280;50712;49.506;10.400;2023-11-21T01:35:02;97418.38;;;11.45
64394;BMP280;50712;49.506;10.400;2023-11-21T01:35:35;97427.31;;;11.45
64394;BMP280;50712;49.506;10.400;2023-11-21T01:36:06;97422.63;;;11.46
64394;BMP280;50712;49.506;10.400;2023-11-21T01:36:36;97419.91;;;11.46
64394;BMP280;50712;49.506;10.400;2023-11-21T01:37:06;97413.69;;;11.45
64394;BMP280;50712;49.506;10.400;2023-11-21T01:37:37;97422.34;;;11.44
64394;BMP280;50712;49.506;10.400;2023-11-21T01:38:08;97423.34;;;11.46
64394;BMP280;50712;49.506;10.400;2023-11-21T01:38:39;97419.13;;;11.45
64394;BMP280;50712;49.506;10.400;2023-11-21T01:39:09;97424.59;;;11.45
64394;BMP280;50712;49.506;10.400;2023-11-21T01:39:45;97422.63;;;11.46
64394;BMP280;50712;49.506;10.400;2023-11-21T01:40:16;97417.19;;;11.46
64394;BMP280;50712;49.506;10.400;2023-11-21T01:40:47;97423.34;;;11.46
64394;BMP280;50712;49.506;10.400;2023-11-21T01:41:18;97415.19;;;11.46
64394;BMP280;50712;49.506;10.400;2023-11-21T01:41:50;97423.34;;;11.46
64394;BMP280;50712;49.506;10.400;2023-11-21T01:42:22;97423.34;;;11.46
64394;BMP280;50712;49.506;10.400;2023-11-21T01:42:53;97417.91;;;11.46
64394;BMP280;50712;49.506;10.400;2023-11-21T01:43:23;97426.09;;;11.46
64394;BMP280;50712;49.506;10.400;2023-11-21T01:43:54;97420.63;;;11.46
64394;BMP280;50712;49.506;10.400;2023-11-21T01:44:25;97418.66;;;11.47
64394;BMP280;50712;49.506;10.400;2023-11-21T01:44:55;97412.44;;;11.46
64394;BMP280;50712;49.506;10.400;2023-11-21T01:45:26;97409.00;;;11.46
64394;BMP280;50712;49.506;10.400;2023-11-21T01:45:56;97417.91;;;11.46
64394;BMP280;50712;49.506;10.400;2023-11-21T01:46:27;97417.91;;;11.46
64394;BMP280;50712;49.506;10.400;2023-11-21T01:46:59;97414.44;;;11.46
64394;BMP280;50712;49.506;10.400;2023-11-21T01:47:29;97415.94;;;11.47
64394;BMP280;50712;49.506;10.400;2023-11-21T01:48:00;97417.19;;;11.46
64394;BMP280;50712;49.506;10.400;2023-11-21T01:48:32;97410.19;;;11.45
64394;BMP280;50712;49.506;10.400;2023-11-21T01:49:04;97410.19;;;11.45
64394;BMP280;50712;49.506;10.400;2023-11-21T01:49:34;97414.44;;;11.46
64394;BMP280;50712;49.506;10.400;2023-11-21T01:50:06;97412.91;;;11.45
64394;BMP280;50712;49.506;10.400;2023-11-21T01:50:43;97408.22;;;11.45
64394;BMP280;50712;49.506;10.400;2023-11-21T01:51:15;97409.00;;;11.46
64394;BMP280;50712;49.506;10.400;2023-11-21T01:51:47;97411.72;;;11.46
64394;BMP280;50712;49.506;10.400;2023-11-21T01:52:19;97417.19;;;11.46
64394;BMP280;50712;49.506;10.400;2023-11-21T01:52:49;97410.97;;;11.45
64394;BMP280;50712;49.506;10.400;2023-11-21T01:53:20;97408.22;;;11.45
64394;BMP280;50712;49.506;10.400;2023-11-21T01:53:53;97407.47;;;11.45
64394;BMP280;50712;49.506;10.400;2023-11-21T01:54:24;97404.75;;;11.45
64394;BMP280;50712;49.506;10.400;2023-11-21T01:54:55;97412.91;;;11.45
64394;BMP280;50712;49.506;10.400;2023-11-21T01:55:25;97407.47;;;11.45
64394;BMP280;50712;49.506;10.400;2023-11-21T01:55:57;97406.25;;;11.46
64394;BMP280;50712;49.506;10.400;2023-11-21T01:56:30;97405.50;;;11.45
64394;BMP280;50712;49.506;10.400;2023-11-21T01:57:01;97403.97;;;11.44
64394;BMP280;50712;49.506;10.400;2023-11-21T01:57:36;97409.44;;;11.44
64394;BMP280;50712;49.506;10.400;2023-11-21T01:58:07;97404.75;;;11.45
64394;BMP280;50712;49.506;10.400;2023-11-21T01:58:39;97401.25;;;11.44
64394;BMP280;50712;49.506;10.400;2023-11-21T01:59:10;97404.75;;;11.45
64394;BMP280;50712;49.506;10.400;2023-11-21T01:59:42;97407.47;;;11.45
64394;BMP280;50712;49.506;10.400;2023-11-21T02:00:14;97406.25;;;11.46
64394;BMP280;50712;49.506;10.400;2023-11-21T02:00:49;97402.00;;;11.45
64394;BMP280;50712;49.506;10.400;2023-11-21T02:01:21;97406.69;;;11.44
64394;BMP280;50712;49.506;10.400;2023-11-21T02:01:51;97403.97;;;11.44
64394;BMP280;50712;49.506;10.400;2023-11-21T02:02:21;97405.97;;;11.44
64394;BMP280;50712;49.506;10.400;2023-11-21T02:02:52;97408.69;;;11.44
64394;BMP280;50712;49.506;10.400;2023-11-21T02:03:22;97411.44;;;11.44
64394;BMP280;50712;49.506;10.400;2023-11-21T02:03:52;97410.66;;;11.43
64394;BMP280;50712;49.506;10.400;2023-11-21T02:04:23;97407.94;;;11.43
64394;BMP280;50712;49.506;10.400;2023-11-21T02:04:53;97405.22;;;11.43
64394;BMP280;50712;49.506;10.400;2023-11-21T02:05:25;97411.44;;;11.44
64394;BMP280;50712;49.506;10.400;2023-11-21T02:05:56;97409.91;;;11.43
64394;BMP280;50712;49.506;10.400;2023-11-21T02:06:26;97406.41;;;11.42
64394;BMP280;50712;49.506;10.400;2023-11-21T02:06:57;97410.66;;;11.43
64394;BMP280;50712;49.506;10.400;2023-11-21T02:07:27;97416.56;;;11.42
64394;BMP280;50712;49.506;10.400;2023-11-21T02:07:58;97413.84;;;11.42
64394;BMP280;50712;49.506;10.400;2023-11-21T02:08:28;97409.91;;;11.43
64394;BMP280;50712;49.506;10.400;2023-11-21T02:08:58;97416.56;;;11.42
64394;BMP280;50712;49.506;10.400;2023-11-21T02:09:31;97410.34;;;11.41
64394;BMP280;50712;49.506;10.400;2023-11-21T02:10:04;97417.31;;;11.42
64394;BMP280;50712;49.506;10.400;2023-11-21T02:10:35;97412.31;;;11.41
64394;BMP280;50712;49.506;10.400;2023-11-21T02:11:07;97415.81;;;11.41
64394;BMP280;50712;49.506;10.400;2023-11-21T02:11:39;97410.34;;;11.41
64394;BMP280;50712;49.506;10.400;2023-11-21T02:12:09;97415.03;;;11.41
64394;BMP280;50712;49.506;10.400;2023-11-21T02:12:40;97415.03;;;11.41
64394;BMP280;50712;49.506;10.400;2023-11-21T02:13:12;97421.25;;;11.41
64394;BMP280;50712;49.506;10.400;2023-11-21T02:13:42;97411.09;;;11.42
64394;BMP280;50712;49.506;10.400;2023-11-21T02:14:13;97418.53;;;11.41
64394;BMP280;50712;49.506;10.400;2023-11-21T02:14:44;97413.06;;;11.41
64394;BMP280;50712;49.506;10.400;2023-11-21T02:15:14;97413.84;;;11.42
64394;BMP280;50712;49.506;10.400;2023-11-21T02:15:50;97414.59;;;11.42
64394;BMP280;50712;49.506;10.400;2023-11-21T02:16:23;97413.06;;;11.41
64394;BMP280;50712;49.506;10.400;2023-11-21T02:16:54;97413.84;;;11.42
64394;BMP280;50712;49.506;10.400;2023-11-21T02:17:27;97417.78;;;11.41
64394;BMP280;50712;49.506;10.400;2023-11-21T02:17:57;97421.25;;;11.41
64394;BMP280;50712;49.506;10.400;2023-11-21T02:18:28;97422.78;;;11.42
64394;BMP280;50712;49.506;10.400;2023-11-21T02:18:59;97415.03;;;11.41
64394;BMP280;50712;49.506;10.400;2023-11-21T02:19:30;97420.50;;;11.41
64394;BMP280;50712;49.506;10.400;2023-11-21T02:20:02;97414.31;;;11.40
64394;BMP280;50712;49.506;10.400;2023-11-21T02:20:32;97417.78;;;11.41
64394;BMP280;50712;49.506;10.400;2023-11-21T02:21:05;97414.31;;;11.40
64394;BMP280;50712;49.506;10.400;2023-11-21T02:21:35;97415.81;;;11.41
64394;BMP280;50712;49.506;10.400;2023-11-21T02:22:10;97414.31;;;11.40
64394;BMP280;50712;49.506;10.400;2023-11-21T02:22:41;97417.03;;;11.40
64394;BMP280;50712;49.506;10.400;2023-11-21T02:23:12;97417.50;;;11.39
64394;BMP280;50712;49.506;10.400;2023-11-21T02:23:43;97419.75;;;11.40
64394;BMP280;50712;49.506;10.400;2023-11-21T02:24:14;97411.59;;;11.40
64394;BMP280;50712;49.506;10.400;2023-11-21T02:24:45;97417.03;;;11.40
64394;BMP280;50712;49.506;10.400;2023-11-21T02:25:16;97413.56;;;11.40
64394;BMP280;50712;49.506;10.400;2023-11-21T02:25:47;97412.06;;;11.39
64394;BMP280;50712;49.506;10.400;2023-11-21T02:26:20;97409.31;;;11.39
64394;BMP280;50712;49.506;10.400;2023-11-21T02:26:50;97418.25;;;11.39
64394;BMP280;50712;49.506;10.400;2023-11-21T02:27:21;97413.56;;;11.40
64394;BMP280;50712;49.506;10.400;2023-11-21T02:27:54;97412.06;;;11.39
64394;BMP280;50712;49.506;10.400;2023-11-21T02:28:25;97412.78;;;11.39
64394;BMP280;50712;49.506;10.400;2023-11-21T02:28:58;97408.56;;;11.38
64394;BMP280;50712;49.506;10.400;2023-11-21T02:29:29;97420.25;;;11.39
64394;BMP280;50712;49.506;10.400;2023-11-21T02:29:59;97411.28;;;11.38
64394;BMP280;50712;49.506;10.400;2023-11-21T02:30:31;97417.50;;;11.39
64394;BMP280;50712;49.506;10.400;2023-11-21T02:31:04;97417.50;;;11.39
64394;BMP280;50712;49.506;10.400;2023-11-21T02:31:36;97414.03;;;11.38
64394;BMP280;50712;49.506;10.400;2023-11-21T02:32:15;97414.03;;;11.38
64394;BMP280;50712;49.506;10.400;2023-11-21T02:32:49;97413.25;;;11.38
64394;BMP280;50712;49.506;10.400;2023-11-21T02:33:19;97411.28;;;11.38
64394;BMP280;50712;49.506;10.400;2023-11-21T02:33:50;97416.75;;;11.38
64394;BMP280;50712;49.506;10.400;2023-11-21T02:34:21;97413.25;;;11.38
64394;BMP280;50712;49.506;10.400;2023-11-21T02:34:52;97416.47;;;11.36
64394;BMP280;50712;49.506;10.400;2023-11-21T02:35:25;97419.94;;;11.37
64394;BMP280;50712;49.506;10.400;2023-11-21T02:35:56;97415.69;;;11.36
64394;BMP280;50712;49.506;10.400;2023-11-21T02:36:27;97421.16;;;11.36
64394;BMP280;50712;49.506;10.400;2023-11-21T02:36:57;97416.91;;;11.35
64394;BMP280;50712;49.506;10.400;2023-11-21T02:37:27;97417.66;;;11.35
64394;BMP280;50712;49.506;10.400;2023-11-21T02:37:57;97414.94;;;11.35
64394;BMP280;50712;49.506;10.400;2023-11-21T02:38:28;97421.16;;;11.36
64394;BMP280;50712;49.506;10.400;2023-11-21T02:38:59;97416.91;;;11.35
64394;BMP280;50712;49.506;10.400;2023-11-21T02:39:29;97422.34;;;11.35
64394;BMP280;50712;49.506;10.400;2023-11-21T02:39:59;97416.91;;;11.35
64394;BMP280;50712;49.506;10.400;2023-11-21T02:40:30;97417.66;;;11.35
64394;BMP280;50712;49.506;10.400;2023-11-21T02:41:00;97416.91;;;11.35
64394;BMP280;50712;49.506;10.400;2023-11-21T02:41:31;97424.34;;;11.34
64394;BMP280;50712;49.506;10.400;2023-11-21T02:42:01;97416.91;;;11.35
64394;BMP280;50712;49.506;10.400;2023-11-21T02:42:31;97420.41;;;11.35
64394;BMP280;50712;49.506;10.400;2023-11-21T02:43:02;97424.34;;;11.34
64394;BMP280;50712;49.506;10.400;2023-11-21T02:43:32;97414.94;;;11.35
64394;BMP280;50712;49.506;10.400;2023-11-21T02:44:03;97421.63;;;11.34
64394;BMP280;50712;49.506;10.400;2023-11-21T02:44:33;97417.66;;;11.35
64394;BMP280;50712;49.506;10.400;2023-11-21T02:45:06;97422.34;;;11.35
64394;BMP280;50712;49.506;10.400;2023-11-21T02:45:37;97424.34;;;11.34
64394;BMP280;50712;49.506;10.400;2023-11-21T02:46:08;97418.91;;;11.34
64394;BMP280;50712;49.506;10.400;2023-11-21T02:46:38;97421.63;;;11.34
64394;BMP280;50712;49.506;10.400;2023-11-21T02:47:10;97416.19;;;11.34
64394;BMP280;50712;49.506;10.400;2023-11-21T02:47:40;97416.91;;;11.35
64394;BMP280;50712;49.506;10.400;2023-11-21T02:48:11;97414.66;;;11.33
64394;BMP280;50712;49.506;10.400;2023-11-21T02:48:41;97418.91;;;11.34
64394;BMP280;50712;49.506;10.400;2023-11-21T02:49:11;97414.66;;;11.33
64394;BMP280;50712;49.506;10.400;2023-11-21T02:49:42;97408.72;;;11.35
64394;BMP280;50712;49.506;10.400;2023-11-21T02:50:14;97416.91;;;11.35
64394;BMP280;50712;49.506;10.400;2023-11-21T02:50:44;97416.91;;;11.35
64394;BMP280;50712;49.506;10.400;2023-11-21T02:51:15;97414.94;;;11.35
64394;BMP280;50712;49.506;10.400;2023-11-21T02:51:45;97416.91;;;11.35
64394;BMP280;50712;49.506;10.400;2023-11-21T02:52:16;97416.19;;;11.34
64394;BMP280;50712;49.506;10.400;2023-11-21T02:52:46;97412.22;;;11.35
64394;BMP280;50712;49.506;10.400;2023-11-21T02:53:18;97418.91;;;11.34
64394;BMP280;50712;49.506;10.400;2023-11-21T02:53:48;97414.94;;;11.35
64394;BMP280;50712;49.506;10.400;2023-11-21T02:54:19;97414.19;;;11.35
64394;BMP280;50712;49.506;10.400;2023-11-21T02:54:51;97416.91;;;11.35
64394;BMP280;50712;49.506;10.400;2023-11-21T02:55:23;97414.94;;;11.35
64394;BMP280;50712;49.506;10.400;2023-11-21T02:55:55;97412.69;;;11.34
64394;BMP280;50712;49.506;10.400;2023-11-21T02:56:25;97413.44;;;11.34